createdAt,value
2023-05-24T00:01:29.273Z,56.2
2023-05-24T00:03:12.664Z,56.3
2023-05-24T00:04:56.057Z,56.2
2023-05-24T00:06:39.464Z,56.3
2023-05-24T00:08:22.854Z,56.3
2023-05-24T00:10:06.272Z,56.2
2023-05-24T00:11:49.647Z,56.2
2023-05-24T00:15:16.120Z,56.2
2023-05-24T00:16:59.529Z,56.3
2023-05-24T00:18:42.919Z,56.2
2023-05-24T00:20:26.308Z,56.1
2023-05-24T00:22:09.741Z,56.1
2023-05-24T00:23:53.100Z,56.1
2023-05-24T00:25:36.488Z,56.1
2023-05-24T00:27:19.884Z,56.2
2023-05-24T00:29:03.578Z,56.1
2023-05-24T00:30:46.988Z,56
2023-05-24T00:32:30.476Z,56.1
2023-05-24T00:34:13.793Z,56
2023-05-24T00:35:57.187Z,56.1
2023-05-24T00:37:40.576Z,56.1
2023-05-24T00:39:23.970Z,56
2023-05-24T00:41:07.366Z,56
2023-05-24T00:42:51.076Z,56
2023-05-24T00:44:34.477Z,56
2023-05-24T00:46:17.857Z,55.9
2023-05-24T00:48:01.258Z,55.9
2023-05-24T00:49:44.665Z,56
2023-05-24T00:51:28.070Z,55.9
2023-05-24T00:53:11.448Z,55.9
2023-05-24T00:54:54.831Z,55.9
2023-05-24T00:56:38.538Z,55.9
2023-05-24T00:58:21.942Z,55.8
2023-05-24T01:00:05.344Z,55.8
2023-05-24T01:01:48.745Z,55.8
2023-05-24T01:03:32.136Z,55.8
2023-05-24T01:05:15.529Z,55.8
2023-05-24T01:06:58.930Z,55.8
2023-05-24T01:08:42.328Z,55.8
2023-05-24T01:10:26.038Z,55.8
2023-05-24T01:12:09.455Z,55.8
2023-05-24T01:13:52.815Z,55.8
2023-05-24T01:15:36.210Z,55.8
2023-05-24T01:17:19.606Z,55.8
2023-05-24T01:19:03.014Z,55.8
2023-05-24T01:20:46.410Z,55.8
2023-05-24T01:22:29.808Z,55.8
2023-05-24T01:25:56.283Z,55.8
2023-05-24T01:27:39.664Z,55.7
2023-05-24T01:29:23.081Z,55.8
2023-05-24T01:31:06.456Z,55.8
2023-05-24T01:32:49.855Z,55.8
2023-05-24T01:34:33.261Z,55.7
2023-05-24T01:36:16.650Z,55.7
2023-05-24T01:41:25.884Z,55.7
2023-05-24T01:43:09.298Z,55.6
2023-05-24T01:44:52.687Z,55.7
2023-05-24T01:46:36.070Z,55.7
2023-05-24T01:48:19.477Z,55.7
2023-05-24T01:50:02.861Z,55.7
2023-05-24T01:51:46.260Z,55.7
2023-05-24T01:56:55.504Z,55.6
2023-05-24T01:58:38.942Z,55.6
2023-05-24T02:00:22.308Z,55.6
2023-05-24T02:02:05.698Z,55.6
2023-05-24T02:03:49.097Z,55.6
2023-05-24T02:05:32.493Z,55.6
2023-05-24T02:07:15.882Z,55.5
2023-05-24T02:08:59.279Z,55.6
2023-05-24T02:10:42.980Z,55.5
2023-05-24T02:12:26.381Z,55.5
2023-05-24T02:14:09.785Z,55.5
2023-05-24T02:15:53.175Z,55.5
2023-05-24T02:17:36.571Z,55.5
2023-05-24T02:19:19.979Z,55.5
2023-05-24T02:21:03.383Z,55.5
2023-05-24T02:22:46.761Z,55.5
2023-05-24T02:24:30.485Z,55.5
2023-05-24T02:26:13.870Z,55.5
2023-05-24T02:27:57.266Z,55.5
2023-05-24T02:29:40.653Z,55.4
2023-05-24T02:31:24.057Z,55.5
2023-05-24T02:33:07.450Z,55.4
2023-05-24T02:34:50.843Z,55.4
2023-05-24T02:36:34.229Z,55.4
2023-05-24T02:38:17.957Z,55.4
2023-05-24T02:40:01.355Z,55.4
2023-05-24T02:41:44.729Z,55.4
2023-05-24T02:43:28.124Z,55.4
2023-05-24T02:45:11.548Z,55.4
2023-05-24T02:46:54.918Z,55.4
2023-05-24T02:48:38.314Z,55.4
2023-05-24T02:53:47.545Z,55.4
2023-05-24T02:55:30.952Z,55.3
2023-05-24T02:57:14.347Z,55.3
2023-05-24T02:58:57.728Z,55.3
2023-05-24T03:00:41.128Z,55.3
2023-05-24T03:02:24.529Z,55.3
2023-05-24T03:04:07.922Z,55.3
2023-05-24T03:05:51.319Z,55.3
2023-05-24T03:07:35.018Z,55.3
2023-05-24T03:09:18.408Z,55.3
2023-05-24T03:11:01.837Z,55.3
2023-05-24T03:12:45.219Z,55.2
2023-05-24T03:14:28.610Z,55.2
2023-05-24T03:16:12.006Z,55.2
2023-05-24T03:17:55.403Z,55.2
2023-05-24T03:19:38.801Z,55.3
2023-05-24T03:23:05.266Z,55.2
2023-05-24T03:24:48.678Z,55.2
2023-05-24T03:26:32.074Z,55.2
2023-05-24T03:28:15.459Z,55.2
2023-05-24T03:29:58.859Z,55.2
2023-05-24T03:31:42.243Z,55.2
2023-05-24T03:33:25.661Z,55.2
2023-05-24T03:35:09.040Z,55.2
2023-05-24T03:36:52.762Z,55.2
2023-05-24T03:38:36.159Z,55.2
2023-05-24T03:40:19.544Z,55.1
2023-05-24T03:42:02.938Z,55.1
2023-05-24T03:43:46.348Z,55.1
2023-05-24T03:45:29.725Z,55.1
2023-05-24T03:47:13.138Z,55.1
2023-05-24T03:48:56.537Z,55.1
2023-05-24T03:52:22.990Z,55.1
2023-05-24T03:54:06.392Z,55.1
2023-05-24T03:55:49.787Z,55.1
2023-05-24T03:57:33.180Z,55.1
2023-05-24T03:59:16.570Z,55.1
2023-05-24T04:00:59.975Z,55
2023-05-24T04:02:43.365Z,55.1
2023-05-24T04:07:52.623Z,55.1
2023-05-24T04:09:35.998Z,55
2023-05-24T04:11:19.494Z,55.1
2023-05-24T04:13:02.807Z,55
2023-05-24T04:14:46.193Z,55
2023-05-24T04:16:29.581Z,55
2023-05-24T04:18:12.992Z,55
2023-05-24T04:19:56.385Z,55
2023-05-24T04:21:40.106Z,55
2023-05-24T04:23:23.481Z,55
2023-05-24T04:25:06.883Z,55
2023-05-24T04:26:50.274Z,55
2023-05-24T04:28:33.678Z,55
2023-05-24T04:30:17.076Z,55
2023-05-24T04:32:00.464Z,55
2023-05-24T04:33:43.910Z,55
2023-05-24T04:37:10.329Z,55
2023-05-24T04:38:53.726Z,55
2023-05-24T04:40:37.115Z,55
2023-05-24T04:42:20.575Z,55
2023-05-24T04:44:03.921Z,55
2023-05-24T04:45:47.371Z,55
2023-05-24T04:47:30.769Z,55
2023-05-24T04:49:14.118Z,55
2023-05-24T04:50:57.815Z,55
2023-05-24T04:52:41.278Z,55
2023-05-24T04:54:24.646Z,55
2023-05-24T04:56:08.042Z,55
2023-05-24T04:57:51.388Z,55
2023-05-24T04:59:34.822Z,55
2023-05-24T05:01:18.226Z,55
2023-05-24T05:03:01.590Z,54.9
2023-05-24T05:06:28.052Z,54.9
2023-05-24T05:08:11.500Z,55
2023-05-24T05:09:54.846Z,55
2023-05-24T05:11:38.247Z,54.9
2023-05-24T05:13:21.641Z,54.9
2023-05-24T05:15:05.026Z,54.9
2023-05-24T05:16:48.427Z,54.9
2023-05-24T05:18:31.835Z,54.9
2023-05-24T05:21:58.306Z,54.9
2023-05-24T05:23:41.705Z,54.9
2023-05-24T05:25:25.099Z,54.9
2023-05-24T05:27:08.496Z,54.9
2023-05-24T05:28:51.879Z,54.9
2023-05-24T05:30:35.281Z,54.9
2023-05-24T05:32:18.674Z,54.9
2023-05-24T05:37:27.933Z,54.9
2023-05-24T05:39:11.320Z,54.9
2023-05-24T05:40:54.709Z,54.8
2023-05-24T05:42:38.119Z,54.9
2023-05-24T05:44:21.558Z,54.8
2023-05-24T05:46:04.908Z,54.8
2023-05-24T05:47:48.443Z,54.8
2023-05-24T05:52:57.532Z,54.8
2023-05-24T05:54:40.973Z,54.8
2023-05-24T05:56:24.415Z,54.9
2023-05-24T05:58:07.742Z,54.8
2023-05-24T05:59:51.160Z,54.9
2023-05-24T06:01:34.608Z,54.9
2023-05-24T06:03:17.957Z,54.9
2023-05-24T06:05:01.416Z,54.8
2023-05-24T06:06:45.113Z,54.8
2023-05-24T06:08:28.542Z,54.8
2023-05-24T06:10:11.811Z,54.8
2023-05-24T06:11:55.314Z,54.8
2023-05-24T06:13:38.714Z,54.8
2023-05-24T06:15:22.089Z,54.8
2023-05-24T06:17:05.380Z,54.8
2023-05-24T06:18:48.788Z,54.8
2023-05-24T06:22:15.407Z,54.8
2023-05-24T06:23:58.655Z,54.8
2023-05-24T06:25:42.062Z,54.8
2023-05-24T06:27:25.452Z,54.8
2023-05-24T06:29:08.851Z,54.8
2023-05-24T06:30:52.223Z,54.8
2023-05-24T06:32:35.630Z,54.8
2023-05-24T06:34:19.064Z,54.8
2023-05-24T06:37:45.534Z,54.8
2023-05-24T06:39:28.898Z,54.8
2023-05-24T06:41:12.301Z,54.8
2023-05-24T06:42:55.706Z,54.8
2023-05-24T06:44:39.104Z,54.8
2023-05-24T06:46:22.466Z,54.7
2023-05-24T06:48:05.884Z,54.8
2023-05-24T06:53:15.139Z,54.8
2023-05-24T06:54:58.529Z,54.8
2023-05-24T06:56:41.916Z,54.8
2023-05-24T06:58:25.359Z,54.8
2023-05-24T07:00:08.705Z,54.8
2023-05-24T07:01:52.120Z,54.8
2023-05-24T07:03:35.559Z,54.8
2023-05-24T07:08:49.891Z,54.8
2023-05-24T07:10:28.748Z,54.8
2023-05-24T07:12:12.159Z,54.8
2023-05-24T07:13:55.556Z,54.8
2023-05-24T07:15:38.991Z,54.8
2023-05-24T07:17:22.355Z,54.8
2023-05-24T07:19:05.772Z,54.8
2023-05-24T07:22:32.215Z,54.5
2023-05-24T07:24:15.728Z,54.4
2023-05-24T07:25:59.020Z,54.4
2023-05-24T07:27:42.483Z,54.2
2023-05-24T07:29:25.812Z,54
2023-05-24T07:31:09.196Z,53.7
2023-05-24T07:32:52.715Z,53.6
2023-05-24T07:38:01.840Z,53.3
2023-05-24T07:39:45.353Z,53.2
2023-05-24T07:41:28.646Z,53.1
2023-05-24T07:43:12.032Z,52.9
2023-05-24T07:44:55.413Z,52.6
2023-05-24T07:46:38.821Z,52.5
2023-05-24T07:48:22.230Z,52.4
2023-05-24T07:51:48.702Z,52.2
2023-05-24T07:53:32.215Z,52
2023-05-24T07:55:15.535Z,51.8
2023-05-24T07:56:58.868Z,51.5
2023-05-24T07:58:42.268Z,51.8
2023-05-24T08:00:25.656Z,51.9
2023-05-24T08:02:09.071Z,52.1
2023-05-24T08:07:18.305Z,50.8
2023-05-24T08:09:01.705Z,50.9
2023-05-24T08:10:45.094Z,51.1
2023-05-24T08:12:28.540Z,51.3
2023-05-24T08:14:11.933Z,51.4
2023-05-24T08:15:55.296Z,51.5
2023-05-24T08:17:38.737Z,51.6
2023-05-24T08:22:47.925Z,51.7
2023-05-24T08:24:31.319Z,51.8
2023-05-24T08:26:14.808Z,51.8
2023-05-24T08:27:58.100Z,51.9
2023-05-24T08:29:41.500Z,52
2023-05-24T08:31:24.894Z,52.1
2023-05-24T08:33:08.302Z,52.1
2023-05-24T08:36:34.781Z,52.1
2023-05-24T08:38:18.154Z,52.1
2023-05-24T08:40:01.651Z,52.2
2023-05-24T08:41:44.996Z,52.4
2023-05-24T08:43:28.367Z,52.3
2023-05-24T08:45:27.666Z,52.3
2023-05-24T08:46:59.653Z,52.4
2023-05-24T08:48:38.540Z,52.5
2023-05-24T08:52:05.067Z,52.5
2023-05-24T08:53:48.413Z,52.6
2023-05-24T08:55:31.923Z,52.6
2023-05-24T08:57:15.250Z,52.5
2023-05-24T08:58:58.633Z,52.4
2023-05-24T09:00:41.996Z,52.3
2023-05-24T09:02:25.454Z,52.3
2023-05-24T09:05:52.005Z,52.2
2023-05-24T09:07:35.269Z,52.2
2023-05-24T09:09:18.757Z,52.2
2023-05-24T09:11:02.201Z,52.2
2023-05-24T09:12:45.522Z,52.2
2023-05-24T09:14:28.841Z,52.2
2023-05-24T09:16:12.351Z,52.2
2023-05-24T09:21:21.523Z,52.5
2023-05-24T09:23:04.900Z,52.5
2023-05-24T09:24:48.279Z,52.6
2023-05-24T09:26:31.684Z,52.7
2023-05-24T09:28:15.212Z,53
2023-05-24T09:29:58.596Z,53
2023-05-24T09:31:41.870Z,52.8
2023-05-24T09:35:08.320Z,52.9
2023-05-24T09:36:51.867Z,52.9
2023-05-24T09:38:35.111Z,52.9
2023-05-24T09:40:18.500Z,53
2023-05-24T09:42:02.057Z,52.8
2023-05-24T09:43:45.331Z,52.8
2023-05-24T09:45:28.731Z,52.9
2023-05-24T09:48:55.177Z,53.1
2023-05-24T09:50:38.720Z,53.1
2023-05-24T09:52:22.186Z,53.2
2023-05-24T09:54:05.499Z,53.2
2023-05-24T09:55:49.035Z,53.3
2023-05-24T09:57:32.313Z,53.2
2023-05-24T09:59:15.737Z,53.1
2023-05-24T10:00:59.153Z,53
2023-05-24T10:02:42.656Z,52.9
2023-05-24T10:04:26.178Z,53
2023-05-24T10:06:09.435Z,53.2
2023-05-24T10:07:53.009Z,53.1
2023-05-24T10:09:36.440Z,53.2
2023-05-24T10:11:19.855Z,53.4
2023-05-24T10:13:03.128Z,53.5
2023-05-24T10:14:46.515Z,53.7
2023-05-24T10:16:30.366Z,53.7
2023-05-24T10:18:13.602Z,53.7
2023-05-24T10:19:57.074Z,53.7
2023-05-24T10:21:40.314Z,53.8
2023-05-24T10:23:23.952Z,53.9
2023-05-24T10:25:07.245Z,54
2023-05-24T10:26:50.724Z,54
2023-05-24T10:28:34.025Z,54.1
2023-05-24T10:30:17.721Z,54
2023-05-24T10:32:01.001Z,54
2023-05-24T10:33:44.516Z,54.1
2023-05-24T10:35:27.802Z,54.1
2023-05-24T10:37:11.227Z,54
2023-05-24T10:38:54.619Z,53.9
2023-05-24T10:40:37.975Z,54
2023-05-24T10:44:04.467Z,54.5
2023-05-24T10:45:47.858Z,54.6
2023-05-24T10:47:31.253Z,54.5
2023-05-24T10:49:14.636Z,54.4
2023-05-24T10:50:58.033Z,54.1
2023-05-24T10:52:41.447Z,54.1
2023-05-24T10:54:24.830Z,54
2023-05-24T10:56:08.242Z,54.1
2023-05-24T10:57:51.923Z,54.1
2023-05-24T10:59:35.337Z,54.2
2023-05-24T11:01:18.731Z,54.3
2023-05-24T11:03:02.148Z,54.6
2023-05-24T11:04:45.515Z,54.4
2023-05-24T11:06:28.908Z,54.4
2023-05-24T11:08:12.321Z,54.2
2023-05-24T11:13:21.537Z,54.4
2023-05-24T11:15:04.953Z,54.2
2023-05-24T11:16:48.336Z,54
2023-05-24T11:18:31.788Z,54
2023-05-24T11:20:15.157Z,53.8
2023-05-24T11:21:58.529Z,53.7
2023-05-24T11:23:41.950Z,53.7
2023-05-24T11:25:25.641Z,53.8
2023-05-24T11:27:09.023Z,53.7
2023-05-24T11:28:52.409Z,53.7
2023-05-24T11:30:35.831Z,53.7
2023-05-24T11:32:19.220Z,54.3
2023-05-24T11:34:02.630Z,54
2023-05-24T11:35:46.001Z,54.3
2023-05-24T11:40:55.247Z,54
2023-05-24T11:42:38.650Z,54
2023-05-24T11:44:22.032Z,54.1
2023-05-24T11:46:05.427Z,54.1
2023-05-24T11:47:48.844Z,54.2
2023-05-24T11:49:32.232Z,54.4
2023-05-24T11:51:15.641Z,54.4
2023-05-24T11:54:42.081Z,54.3
2023-05-24T11:56:25.491Z,53.9
2023-05-24T11:58:08.892Z,53.6
2023-05-24T11:59:52.277Z,53.8
2023-05-24T12:01:35.687Z,54.1
2023-05-24T12:03:19.079Z,54.3
2023-05-24T12:05:02.480Z,54.3
2023-05-24T12:10:11.699Z,54.5
2023-05-24T12:11:55.116Z,54.4
2023-05-24T12:13:38.493Z,54.4
2023-05-24T12:15:21.895Z,54.4
2023-05-24T12:17:05.290Z,54.3
2023-05-24T12:18:48.693Z,53.9
2023-05-24T12:20:32.136Z,53.7
2023-05-24T12:23:58.563Z,53.6
2023-05-24T12:25:41.962Z,53.4
2023-05-24T12:27:25.359Z,52.7
2023-05-24T12:29:08.751Z,52.1
2023-05-24T12:30:52.141Z,51.9
2023-05-24T12:32:35.536Z,51.6
2023-05-24T12:34:18.950Z,51.5
2023-05-24T12:36:02.356Z,51.7
2023-05-24T12:37:46.040Z,51.7
2023-05-24T12:39:29.457Z,51.9
2023-05-24T12:41:12.823Z,52.2
2023-05-24T12:42:56.225Z,52.3
2023-05-24T12:44:39.612Z,52.4
2023-05-24T12:46:23.011Z,52.5
2023-05-24T12:48:06.403Z,52.6
2023-05-24T12:51:32.883Z,52.6
2023-05-24T12:53:16.285Z,52.7
2023-05-24T12:54:59.678Z,52.8
2023-05-24T12:56:43.076Z,52.9
2023-05-24T12:58:26.466Z,52.9
2023-05-24T13:00:09.865Z,52.7
2023-05-24T13:01:53.265Z,52.7
2023-05-24T13:07:02.502Z,52.8
2023-05-24T13:08:45.894Z,52.8
2023-05-24T13:10:29.285Z,52.6
2023-05-24T13:12:12.690Z,52.5
2023-05-24T13:13:56.092Z,52.5
2023-05-24T13:15:39.518Z,52.5
2023-05-24T13:17:22.885Z,52.4
2023-05-24T13:20:49.350Z,52.2
2023-05-24T13:22:32.753Z,52.3
2023-05-24T13:24:16.162Z,52.2
2023-05-24T13:25:59.564Z,52.2
2023-05-24T13:27:42.935Z,52.3
2023-05-24T13:29:26.338Z,52.3
2023-05-24T13:31:09.737Z,52.3
2023-05-24T13:34:36.203Z,52.3
2023-05-24T13:36:19.650Z,52.6
2023-05-24T13:38:02.998Z,52.4
2023-05-24T13:39:46.385Z,52.4
2023-05-24T13:41:29.908Z,52.5
2023-05-24T13:43:13.322Z,52.5
2023-05-24T13:44:56.761Z,52.5
2023-05-24T13:48:23.183Z,52.4
2023-05-24T13:50:06.605Z,52.2
2023-05-24T13:51:49.896Z,50.3
2023-05-24T13:53:33.326Z,47.7
2023-05-24T13:55:16.623Z,45.6
2023-05-24T13:57:00.091Z,44.4
2023-05-24T13:58:43.431Z,43.7
2023-05-24T14:02:09.905Z,42.9
2023-05-24T14:03:53.361Z,42.7
2023-05-24T14:05:36.678Z,42.3
2023-05-24T14:07:20.075Z,42.2
2023-05-24T14:09:03.494Z,42.2
2023-05-24T14:10:46.994Z,42.2
2023-05-24T14:12:30.434Z,42.1
2023-05-24T14:15:56.769Z,41.4
2023-05-24T14:17:40.223Z,41
2023-05-24T14:19:23.602Z,40.8
2023-05-24T14:21:06.990Z,40.2
2023-05-24T14:22:50.345Z,39.2
2023-05-24T14:24:33.828Z,38.7
2023-05-24T14:26:17.180Z,38
2023-05-24T14:31:26.361Z,37.5
2023-05-24T14:33:09.786Z,37.2
2023-05-24T14:34:53.202Z,37.1
2023-05-24T14:36:36.626Z,36.8
2023-05-24T14:38:19.946Z,36.4
2023-05-24T14:40:03.351Z,35.7
2023-05-24T14:41:46.745Z,35.2
2023-05-24T14:46:55.989Z,35.2
2023-05-24T14:48:39.393Z,34.8
2023-05-24T14:50:22.768Z,34.7
2023-05-24T14:52:06.166Z,34.5
2023-05-24T14:53:49.680Z,34.9
2023-05-24T14:55:32.957Z,35.2
2023-05-24T14:57:16.450Z,35.4
2023-05-24T14:58:59.755Z,35.9
2023-05-24T15:00:43.456Z,36.3
2023-05-24T15:02:26.853Z,36.6
2023-05-24T15:04:10.250Z,36.7
2023-05-24T15:07:37.052Z,37.1
2023-05-24T15:09:20.431Z,37.4
2023-05-24T15:11:03.983Z,37.6
2023-05-24T15:12:47.356Z,37.9
2023-05-24T15:14:30.985Z,38.1
2023-05-24T15:16:14.388Z,38.3
2023-05-24T15:17:57.723Z,38.5
2023-05-24T15:19:41.118Z,38.6
2023-05-24T15:21:24.540Z,38.8
2023-05-24T15:23:07.913Z,39
2023-05-24T15:24:51.302Z,39.1
2023-05-24T15:26:34.744Z,39.2
2023-05-24T15:28:18.406Z,39.4
2023-05-24T15:30:01.822Z,39.6
2023-05-24T15:31:45.230Z,39.7
2023-05-24T15:33:28.678Z,39.8
2023-05-24T15:35:11.993Z,40
2023-05-24T15:36:55.387Z,40.1
2023-05-24T15:38:38.793Z,40.2
2023-05-24T15:40:22.179Z,40.4
2023-05-24T15:42:05.908Z,40.5
2023-05-24T15:43:49.301Z,40.6
2023-05-24T15:45:32.697Z,40.8
2023-05-24T15:47:16.087Z,40.9
2023-05-24T15:48:59.480Z,41
2023-05-24T15:50:42.873Z,41
2023-05-24T15:52:26.266Z,41.1
2023-05-24T15:57:35.514Z,41.5
2023-05-24T15:59:18.896Z,41.6
2023-05-24T16:01:02.372Z,41.8
2023-05-24T16:02:45.687Z,41.9
2023-05-24T16:04:29.090Z,42
2023-05-24T16:06:12.563Z,42.1
2023-05-24T16:07:55.923Z,42.2
2023-05-24T16:11:22.355Z,42.4
2023-05-24T16:13:05.760Z,42.5
2023-05-24T16:14:49.157Z,42.5
2023-05-24T16:16:32.528Z,42.5
2023-05-24T16:18:16.025Z,42.6
2023-05-24T16:19:59.418Z,42.7
2023-05-24T16:21:42.726Z,42.8
2023-05-24T16:23:26.126Z,42.9
2023-05-24T16:25:09.861Z,43
2023-05-24T16:26:53.225Z,43.1
2023-05-24T16:28:36.655Z,43.1
2023-05-24T16:30:20.018Z,43.4
2023-05-24T16:32:03.444Z,43.5
2023-05-24T16:33:46.860Z,43.5
2023-05-24T16:35:30.220Z,43.5
2023-05-24T16:40:39.446Z,43.4
2023-05-24T16:42:22.861Z,43.6
2023-05-24T16:44:06.261Z,43.8
2023-05-24T16:45:49.634Z,43.9
2023-05-24T16:49:16.459Z,44
2023-05-24T16:50:59.834Z,44
2023-05-24T16:54:26.307Z,44.4
2023-05-24T16:56:09.711Z,44.3
2023-05-24T16:57:53.098Z,44.6
2023-05-24T16:59:36.523Z,44.7
2023-05-24T17:01:19.892Z,44.6
2023-05-24T17:03:03.288Z,44.8
2023-05-24T17:04:46.681Z,44.7
2023-05-24T17:08:13.153Z,44.8
2023-05-24T17:09:56.557Z,44.8
2023-05-24T17:11:39.949Z,44.7
2023-05-24T17:13:23.333Z,44.7
2023-05-24T17:15:06.733Z,44.8
2023-05-24T17:16:50.123Z,44.8
2023-05-24T17:18:33.571Z,44.8
2023-05-24T17:21:59.994Z,44.9
2023-05-24T17:23:43.387Z,44.9
2023-05-24T17:25:26.811Z,45
2023-05-24T17:27:10.171Z,45
2023-05-24T17:28:53.617Z,45.1
2023-05-24T17:30:36.980Z,45.2
2023-05-24T17:32:20.392Z,45.2
2023-05-24T17:35:46.850Z,45
2023-05-24T17:37:30.232Z,44.9
2023-05-24T17:39:13.633Z,44.9
2023-05-24T17:40:57.067Z,45
2023-05-24T17:42:40.520Z,45.1
2023-05-24T17:44:23.810Z,45.1
2023-05-24T17:46:07.221Z,45.3
2023-05-24T17:49:33.732Z,45.5
2023-05-24T17:51:17.140Z,45.7
2023-05-24T17:53:00.496Z,45.9
2023-05-24T17:54:43.878Z,45.8
2023-05-24T17:56:27.283Z,45.8
2023-05-24T17:58:10.673Z,46
2023-05-24T17:59:54.066Z,46.2
2023-05-24T18:03:20.555Z,46.4
2023-05-24T18:05:03.943Z,46.5
2023-05-24T18:06:47.331Z,46.5
2023-05-24T18:08:30.719Z,46.4
2023-05-24T18:10:14.136Z,46.4
2023-05-24T18:11:57.528Z,46.4
2023-05-24T18:13:40.922Z,46.8
2023-05-24T18:17:07.372Z,46.9
2023-05-24T18:18:50.881Z,46.9
2023-05-24T18:20:34.199Z,47
2023-05-24T18:22:17.572Z,47.1
2023-05-24T18:24:00.974Z,47.5
2023-05-24T18:25:44.372Z,47.4
2023-05-24T18:27:27.781Z,47.3
2023-05-24T18:32:37.008Z,47.5
2023-05-24T18:34:20.406Z,47.6
2023-05-24T18:36:03.787Z,47.7
2023-05-24T18:37:47.188Z,47.7
2023-05-24T18:39:30.582Z,47.8
2023-05-24T18:41:13.987Z,47.9
2023-05-24T18:42:57.380Z,48
2023-05-24T18:53:17.456Z,48.3
2023-05-24T18:55:00.844Z,48.3
2023-05-24T18:56:44.240Z,48.4
2023-05-24T18:58:27.626Z,48.3
2023-05-24T19:00:11.347Z,48.4
2023-05-24T19:01:54.745Z,48.4
2023-05-24T19:03:38.141Z,48.5
2023-05-24T19:05:21.531Z,48.6
2023-05-24T19:07:04.912Z,48.7
2023-05-24T19:08:48.322Z,48.7
2023-05-24T19:10:31.802Z,48.8
2023-05-24T19:12:15.109Z,48.8
2023-05-24T19:15:41.592Z,49
2023-05-24T19:17:24.976Z,49.2
2023-05-24T19:19:08.363Z,49.1
2023-05-24T19:20:51.758Z,49.1
2023-05-24T19:22:35.176Z,48.9
2023-05-24T19:24:18.572Z,49.1
2023-05-24T19:26:02.002Z,49.2
2023-05-24T19:31:11.199Z,49.2
2023-05-24T19:32:54.591Z,49.3
2023-05-24T19:34:38.011Z,49.3
2023-05-24T19:36:21.429Z,49.3
2023-05-24T19:38:04.790Z,49.3
2023-05-24T19:39:48.187Z,49.4
2023-05-24T19:41:31.581Z,49.4
2023-05-24T19:46:40.864Z,49.3
2023-05-24T19:48:24.216Z,49.3
2023-05-24T19:50:07.653Z,49.3
2023-05-24T19:51:51.011Z,49.2
2023-05-24T19:53:34.397Z,49.2
2023-05-24T19:55:17.801Z,49.5
2023-05-24T19:57:01.203Z,49.6
2023-05-24T20:00:27.686Z,49.7
2023-05-24T20:02:11.061Z,49.7
2023-05-24T20:03:54.459Z,49.7
2023-05-24T20:05:37.860Z,49.8
2023-05-24T20:07:21.277Z,49.7
2023-05-24T20:09:04.661Z,49.6
2023-05-24T20:10:48.071Z,49.8
2023-05-24T20:14:14.528Z,49.6
2023-05-24T20:15:57.920Z,49.6
2023-05-24T20:17:41.318Z,49.6
2023-05-24T20:19:24.722Z,49.6
2023-05-24T20:21:08.116Z,49.4
2023-05-24T20:22:51.508Z,49.5
2023-05-24T20:24:34.890Z,49.5
2023-05-24T20:26:18.327Z,49.6
2023-05-24T20:28:01.997Z,49.8
2023-05-24T20:29:45.471Z,49.8
2023-05-24T20:31:28.790Z,49.9
2023-05-24T20:33:12.192Z,49.9
2023-05-24T20:34:55.609Z,49.8
2023-05-24T20:36:38.969Z,49.9
2023-05-24T20:38:22.377Z,49.5
2023-05-24T20:40:05.775Z,49.5
2023-05-24T20:43:32.260Z,49.5
2023-05-24T20:45:15.640Z,49.2
2023-05-24T20:46:59.035Z,45.4
2023-05-24T20:48:42.432Z,42.2
2023-05-24T20:50:25.889Z,41.1
2023-05-24T20:52:09.225Z,40.5
2023-05-24T20:53:52.649Z,40.3
2023-05-24T20:55:36.034Z,40.2
2023-05-24T20:59:02.679Z,40.5
2023-05-24T21:00:46.017Z,40.6
2023-05-24T21:02:29.358Z,40.6
2023-05-24T21:04:12.690Z,40.7
2023-05-24T21:05:56.094Z,40.8
2023-05-24T21:07:39.526Z,40.9
2023-05-24T21:09:22.885Z,41.1
2023-05-24T21:11:06.328Z,41.3
2023-05-24T21:16:15.509Z,42
2023-05-24T21:17:58.911Z,42.1
2023-05-24T21:19:42.308Z,42.2
2023-05-24T21:21:25.715Z,42.4
2023-05-24T21:23:09.093Z,42.3
2023-05-24T21:24:52.474Z,42.6
2023-05-24T21:26:35.897Z,42.7
2023-05-24T21:28:19.301Z,42.7
2023-05-24T21:30:02.679Z,42.8
2023-05-24T21:33:29.150Z,42.9
2023-05-24T21:35:12.539Z,43
2023-05-24T21:36:55.910Z,43
2023-05-24T21:38:39.329Z,43.1
2023-05-24T21:40:22.786Z,43.1
2023-05-24T21:42:06.122Z,43.2
2023-05-24T21:43:49.516Z,43.2
2023-05-24T21:45:32.998Z,43.3
2023-05-24T21:50:42.170Z,43.4
2023-05-24T21:52:25.573Z,43.4
2023-05-24T21:54:08.939Z,43.2
2023-05-24T21:55:52.374Z,43
2023-05-24T21:57:35.777Z,43.2
2023-05-24T21:59:19.253Z,43.5
2023-05-24T22:01:02.538Z,43.5
2023-05-24T22:02:45.931Z,43.5
2023-05-24T22:06:12.387Z,43.6
2023-05-24T22:07:55.805Z,43.6
2023-05-24T22:09:39.202Z,43.7
2023-05-24T22:11:22.598Z,43.7
2023-05-24T22:13:05.992Z,43.7
2023-05-24T22:15:04.832Z,43.7
2023-05-24T22:16:32.766Z,43.7
2023-05-24T22:18:16.156Z,43.7
2023-05-24T22:21:42.671Z,43.7
2023-05-24T22:23:26.056Z,43.7
2023-05-24T22:25:09.426Z,43.8
2023-05-24T22:26:52.833Z,43.8
2023-05-24T22:28:36.229Z,43.8
2023-05-24T22:30:19.672Z,43.9
2023-05-24T22:32:03.062Z,43.9
2023-05-24T22:33:46.433Z,43.9
2023-05-24T22:37:12.903Z,43.9
2023-05-24T22:38:56.313Z,44
2023-05-24T22:40:39.709Z,44
2023-05-24T22:42:23.084Z,44
2023-05-24T22:44:06.461Z,44.1
2023-05-24T22:45:49.860Z,44.1
2023-05-24T22:47:33.274Z,44.1
2023-05-24T22:49:16.678Z,44.2
2023-05-24T22:51:00.363Z,44.3
2023-05-24T22:52:43.818Z,44.3
2023-05-24T22:54:27.149Z,44.3
2023-05-24T22:56:10.565Z,44.4
2023-05-24T22:57:53.963Z,44.4
2023-05-24T22:59:37.337Z,44.5
2023-05-24T23:01:20.745Z,44.5
2023-05-24T23:03:04.200Z,44.5
2023-05-24T23:04:47.948Z,44.6
2023-05-24T23:06:31.241Z,44.6
2023-05-24T23:08:14.635Z,44.6
2023-05-24T23:09:58.103Z,44.7
2023-05-24T23:11:41.423Z,44.7
2023-05-24T23:13:24.816Z,44.8
2023-05-24T23:15:08.299Z,44.8
2023-05-24T23:16:51.603Z,44.8
2023-05-24T23:20:18.145Z,44.9
2023-05-24T23:22:01.485Z,44.9
2023-05-24T23:23:44.896Z,45
2023-05-24T23:25:28.270Z,45
2023-05-24T23:27:11.686Z,45.1
2023-05-24T23:28:55.076Z,45.2
2023-05-24T23:30:38.467Z,45.3
2023-05-24T23:32:21.910Z,45.4
2023-05-24T23:35:48.322Z,45.6
2023-05-24T23:37:31.735Z,45.7
2023-05-24T23:39:15.125Z,45.8
2023-05-24T23:40:58.517Z,45.8
2023-05-24T23:42:41.942Z,45.9
2023-05-24T23:44:25.326Z,45.9
2023-05-24T23:46:08.712Z,46
2023-05-24T23:47:52.097Z,46
2023-05-24T23:51:18.660Z,46.1
2023-05-24T23:53:01.967Z,46.2
2023-05-24T23:54:45.372Z,46.2
2023-05-24T23:56:28.763Z,46.3
2023-05-24T23:58:12.169Z,46.3
2023-05-24T23:59:55.565Z,46.3
